sensor_id;sensor_type;location;lat;lon;timestamp;P1;durP1;ratioP1;P2;durP2;ratioP2
38117;SDS011;23928;47.562;7.508;2022-09-03T00:00:22;6.07;;;4.70;;
38117;SDS011;23928;47.562;7.508;2022-09-03T00:08:41;8.30;;;4.53;;
38117;SDS011;23928;47.562;7.508;2022-09-03T00:11:32;8.27;;;4.43;;
38117;SDS011;23928;47.562;7.508;2022-09-03T00:14:21;7.13;;;4.00;;
38117;SDS011;23928;47.562;7.508;2022-09-03T00:19:43;5.23;;;3.90;;
38117;SDS011;23928;47.562;7.508;2022-09-03T00:22:23;10.33;;;4.00;;
38117;SDS011;23928;47.562;7.508;2022-09-03T00:24:53;4.80;;;4.27;;
38117;SDS011;23928;47.562;7.508;2022-09-03T00:27:25;5.07;;;4.20;;
38117;SDS011;23928;47.562;7.508;2022-09-03T00:29:54;5.27;;;4.20;;
38117;SDS011;23928;47.562;7.508;2022-09-03T00:35:19;4.97;;;4.47;;
38117;SDS011;23928;47.562;7.508;2022-09-03T00:37:51;6.80;;;4.23;;
38117;SDS011;23928;47.562;7.508;2022-09-03T00:40:22;4.93;;;4.13;;
38117;SDS011;23928;47.562;7.508;2022-09-03T00:48:49;6.37;;;4.20;;
38117;SDS011;23928;47.562;7.508;2022-09-03T00:54:05;5.37;;;4.87;;
38117;SDS011;23928;47.562;7.508;2022-09-03T00:59:44;7.03;;;5.57;;
38117;SDS011;23928;47.562;7.508;2022-09-03T01:18:40;7.50;;;6.17;;
38117;SDS011;23928;47.562;7.508;2022-09-03T01:24:37;7.27;;;6.30;;
38117;SDS011;23928;47.562;7.508;2022-09-03T01:27:20;7.17;;;6.27;;
38117;SDS011;23928;47.562;7.508;2022-09-03T01:30:12;7.87;;;6.70;;
38117;SDS011;23928;47.562;7.508;2022-09-03T01:37:43;8.77;;;6.63;;
38117;SDS011;23928;47.562;7.508;2022-09-03T01:45:53;9.63;;;6.63;;
38117;SDS011;23928;47.562;7.508;2022-09-03T01:50:52;6.20;;;5.30;;
38117;SDS011;23928;47.562;7.508;2022-09-03T01:56:33;10.03;;;5.63;;
38117;SDS011;23928;47.562;7.508;2022-09-03T01:59:30;9.83;;;6.40;;
38117;SDS011;23928;47.562;7.508;2022-09-03T02:05:01;8.33;;;5.90;;
38117;SDS011;23928;47.562;7.508;2022-09-03T02:07:37;6.67;;;5.43;;
38117;SDS011;23928;47.562;7.508;2022-09-03T02:10:12;6.10;;;5.50;;
38117;SDS011;23928;47.562;7.508;2022-09-03T02:12:43;6.03;;;5.43;;
38117;SDS011;23928;47.562;7.508;2022-09-03T02:15:17;6.63;;;5.67;;
38117;SDS011;23928;47.562;7.508;2022-09-03T02:17:45;5.47;;;4.97;;
38117;SDS011;23928;47.562;7.508;2022-09-03T02:20:19;6.47;;;5.23;;
38117;SDS011;23928;47.562;7.508;2022-09-03T02:22:47;6.17;;;5.07;;
38117;SDS011;23928;47.562;7.508;2022-09-03T02:25:14;5.80;;;4.97;;
38117;SDS011;23928;47.562;7.508;2022-09-03T02:27:40;5.37;;;4.87;;
38117;SDS011;23928;47.562;7.508;2022-09-03T02:30:08;6.50;;;4.93;;
38117;SDS011;23928;47.562;7.508;2022-09-03T02:32:34;5.30;;;4.57;;
38117;SDS011;23928;47.562;7.508;2022-09-03T02:35:00;7.17;;;4.27;;
38117;SDS011;23928;47.562;7.508;2022-09-03T02:37:25;6.10;;;4.67;;
38117;SDS011;23928;47.562;7.508;2022-09-03T02:39:51;5.27;;;4.77;;
38117;SDS011;23928;47.562;7.508;2022-09-03T02:42:17;7.00;;;4.50;;
38117;SDS011;23928;47.562;7.508;2022-09-03T02:44:54;5.03;;;4.50;;
38117;SDS011;23928;47.562;7.508;2022-09-03T02:47:24;5.47;;;4.93;;
38117;SDS011;23928;47.562;7.508;2022-09-03T02:49:56;8.57;;;4.53;;
38117;SDS011;23928;47.562;7.508;2022-09-03T02:52:21;5.03;;;4.47;;
38117;SDS011;23928;47.562;7.508;2022-09-03T02:54:47;5.10;;;4.33;;
38117;SDS011;23928;47.562;7.508;2022-09-03T02:57:13;7.17;;;5.17;;
38117;SDS011;23928;47.562;7.508;2022-09-03T02:59:41;7.67;;;5.13;;
38117;SDS011;23928;47.562;7.508;2022-09-03T03:02:09;7.17;;;4.77;;
38117;SDS011;23928;47.562;7.508;2022-09-03T03:04:35;4.67;;;3.97;;
38117;SDS011;23928;47.562;7.508;2022-09-03T03:07:02;5.33;;;4.83;;
38117;SDS011;23928;47.562;7.508;2022-09-03T03:09:27;6.90;;;4.63;;
38117;SDS011;23928;47.562;7.508;2022-09-03T03:11:53;5.77;;;4.60;;
38117;SDS011;23928;47.562;7.508;2022-09-03T03:14:19;6.00;;;4.73;;
38117;SDS011;23928;47.562;7.508;2022-09-03T03:16:46;5.53;;;4.70;;
38117;SDS011;23928;47.562;7.508;2022-09-03T03:19:12;4.67;;;4.27;;
38117;SDS011;23928;47.562;7.508;2022-09-03T03:21:38;6.70;;;5.17;;
38117;SDS011;23928;47.562;7.508;2022-09-03T03:24:04;5.20;;;4.70;;
38117;SDS011;23928;47.562;7.508;2022-09-03T03:26:30;8.53;;;5.97;;
38117;SDS011;23928;47.562;7.508;2022-09-03T03:28:56;7.80;;;5.90;;
38117;SDS011;23928;47.562;7.508;2022-09-03T03:31:24;8.43;;;5.47;;
38117;SDS011;23928;47.562;7.508;2022-09-03T03:33:51;5.30;;;4.80;;
38117;SDS011;23928;47.562;7.508;2022-09-03T03:36:17;6.80;;;5.60;;
38117;SDS011;23928;47.562;7.508;2022-09-03T03:38:43;7.17;;;5.90;;
38117;SDS011;23928;47.562;7.508;2022-09-03T03:41:20;8.97;;;6.03;;
38117;SDS011;23928;47.562;7.508;2022-09-03T03:43:53;6.43;;;5.53;;
38117;SDS011;23928;47.562;7.508;2022-09-03T03:46:20;7.27;;;5.60;;
38117;SDS011;23928;47.562;7.508;2022-09-03T03:48:47;8.03;;;6.20;;
38117;SDS011;23928;47.562;7.508;2022-09-03T03:51:14;7.60;;;6.67;;
38117;SDS011;23928;47.562;7.508;2022-09-03T03:53:39;9.60;;;6.60;;
38117;SDS011;23928;47.562;7.508;2022-09-03T03:56:06;8.77;;;6.97;;
38117;SDS011;23928;47.562;7.508;2022-09-03T03:58:34;7.53;;;6.50;;
38117;SDS011;23928;47.562;7.508;2022-09-03T04:01:05;7.77;;;6.23;;
38117;SDS011;23928;47.562;7.508;2022-09-03T04:03:32;8.00;;;7.13;;
38117;SDS011;23928;47.562;7.508;2022-09-03T04:05:58;7.63;;;6.43;;
38117;SDS011;23928;47.562;7.508;2022-09-03T04:08:25;9.67;;;6.53;;
38117;SDS011;23928;47.562;7.508;2022-09-03T04:10:51;7.33;;;6.53;;
38117;SDS011;23928;47.562;7.508;2022-09-03T04:13:17;9.73;;;7.47;;
38117;SDS011;23928;47.562;7.508;2022-09-03T04:15:43;9.93;;;7.40;;
38117;SDS011;23928;47.562;7.508;2022-09-03T04:18:09;8.77;;;7.13;;
38117;SDS011;23928;47.562;7.508;2022-09-03T04:20:35;9.50;;;6.60;;
38117;SDS011;23928;47.562;7.508;2022-09-03T04:23:01;7.50;;;6.53;;
38117;SDS011;23928;47.562;7.508;2022-09-03T04:25:27;8.77;;;6.83;;
38117;SDS011;23928;47.562;7.508;2022-09-03T04:27:53;8.43;;;5.90;;
38117;SDS011;23928;47.562;7.508;2022-09-03T04:30:19;7.33;;;6.40;;
38117;SDS011;23928;47.562;7.508;2022-09-03T04:32:48;7.03;;;6.33;;
38117;SDS011;23928;47.562;7.508;2022-09-03T04:35:17;8.43;;;5.97;;
38117;SDS011;23928;47.562;7.508;2022-09-03T04:37:44;8.13;;;5.20;;
38117;SDS011;23928;47.562;7.508;2022-09-03T04:40:10;6.70;;;5.70;;
38117;SDS011;23928;47.562;7.508;2022-09-03T04:42:36;6.00;;;5.37;;
38117;SDS011;23928;47.562;7.508;2022-09-03T04:45:02;8.30;;;6.07;;
38117;SDS011;23928;47.562;7.508;2022-09-03T04:47:28;8.50;;;5.77;;
38117;SDS011;23928;47.562;7.508;2022-09-03T04:49:53;7.10;;;5.77;;
38117;SDS011;23928;47.562;7.508;2022-09-03T04:52:19;5.97;;;5.40;;
38117;SDS011;23928;47.562;7.508;2022-09-03T04:54:45;5.77;;;5.20;;
38117;SDS011;23928;47.562;7.508;2022-09-03T04:57:11;10.50;;;6.23;;
38117;SDS011;23928;47.562;7.508;2022-09-03T04:59:37;6.50;;;5.90;;
38117;SDS011;23928;47.562;7.508;2022-09-03T05:02:04;6.27;;;5.63;;
38117;SDS011;23928;47.562;7.508;2022-09-03T05:04:32;6.90;;;6.20;;
38117;SDS011;23928;47.562;7.508;2022-09-03T05:06:57;8.13;;;6.90;;
38117;SDS011;23928;47.562;7.508;2022-09-03T05:09:23;8.57;;;6.30;;
38117;SDS011;23928;47.562;7.508;2022-09-03T05:11:49;6.87;;;6.17;;
38117;SDS011;23928;47.562;7.508;2022-09-03T05:14:14;6.97;;;5.80;;
38117;SDS011;23928;47.562;7.508;2022-09-03T05:16:40;8.67;;;6.43;;
38117;SDS011;23928;47.562;7.508;2022-09-03T05:19:05;7.53;;;6.47;;
38117;SDS011;23928;47.562;7.508;2022-09-03T05:21:32;9.73;;;6.73;;
38117;SDS011;23928;47.562;7.508;2022-09-03T05:24:00;8.57;;;6.37;;
38117;SDS011;23928;47.562;7.508;2022-09-03T05:26:28;13.03;;;6.47;;
38117;SDS011;23928;47.562;7.508;2022-09-03T05:28:56;7.03;;;6.03;;
38117;SDS011;23928;47.562;7.508;2022-09-03T05:31:23;7.30;;;6.10;;
38117;SDS011;23928;47.562;7.508;2022-09-03T05:33:52;10.83;;;6.00;;
38117;SDS011;23928;47.562;7.508;2022-09-03T05:36:22;6.97;;;6.27;;
38117;SDS011;23928;47.562;7.508;2022-09-03T05:38:49;7.07;;;6.13;;
38117;SDS011;23928;47.562;7.508;2022-09-03T05:41:18;7.17;;;5.37;;
38117;SDS011;23928;47.562;7.508;2022-09-03T05:43:48;7.50;;;5.80;;
38117;SDS011;23928;47.562;7.508;2022-09-03T05:46:20;7.67;;;5.23;;
38117;SDS011;23928;47.562;7.508;2022-09-03T05:48:51;6.70;;;5.77;;
38117;SDS011;23928;47.562;7.508;2022-09-03T05:51:17;6.10;;;5.50;;
38117;SDS011;23928;47.562;7.508;2022-09-03T05:53:44;10.17;;;6.60;;
38117;SDS011;23928;47.562;7.508;2022-09-03T05:56:12;7.13;;;6.17;;
38117;SDS011;23928;47.562;7.508;2022-09-03T05:58:44;7.43;;;6.13;;
38117;SDS011;23928;47.562;7.508;2022-09-03T06:03:54;8.10;;;6.00;;
38117;SDS011;23928;47.562;7.508;2022-09-03T06:06:22;6.73;;;5.50;;
38117;SDS011;23928;47.562;7.508;2022-09-03T06:08:54;11.33;;;6.23;;
38117;SDS011;23928;47.562;7.508;2022-09-03T06:11:22;7.50;;;6.63;;
38117;SDS011;23928;47.562;7.508;2022-09-03T06:13:50;7.27;;;6.50;;
38117;SDS011;23928;47.562;7.508;2022-09-03T06:16:16;8.17;;;6.60;;
38117;SDS011;23928;47.562;7.508;2022-09-03T06:18:42;8.53;;;6.43;;
38117;SDS011;23928;47.562;7.508;2022-09-03T06:21:08;7.83;;;6.17;;
38117;SDS011;23928;47.562;7.508;2022-09-03T06:23:33;10.07;;;6.67;;
38117;SDS011;23928;47.562;7.508;2022-09-03T06:26:06;7.87;;;5.87;;
38117;SDS011;23928;47.562;7.508;2022-09-03T06:28:35;10.27;;;6.67;;
38117;SDS011;23928;47.562;7.508;2022-09-03T06:31:03;7.27;;;5.97;;
38117;SDS011;23928;47.562;7.508;2022-09-03T06:33:30;7.43;;;6.73;;
38117;SDS011;23928;47.562;7.508;2022-09-03T06:35:57;10.50;;;7.90;;
38117;SDS011;23928;47.562;7.508;2022-09-03T06:38:24;10.33;;;6.70;;
38117;SDS011;23928;47.562;7.508;2022-09-03T06:40:56;7.83;;;7.03;;
38117;SDS011;23928;47.562;7.508;2022-09-03T06:43:26;12.10;;;7.30;;
38117;SDS011;23928;47.562;7.508;2022-09-03T06:45:56;8.33;;;7.27;;
38117;SDS011;23928;47.562;7.508;2022-09-03T06:48:23;9.63;;;7.27;;
38117;SDS011;23928;47.562;7.508;2022-09-03T06:50:56;8.23;;;6.67;;
38117;SDS011;23928;47.562;7.508;2022-09-03T06:53:26;7.47;;;6.40;;
38117;SDS011;23928;47.562;7.508;2022-09-03T06:55:53;6.33;;;5.00;;
38117;SDS011;23928;47.562;7.508;2022-09-03T06:58:23;7.13;;;6.13;;
38117;SDS011;23928;47.562;7.508;2022-09-03T07:00:52;8.10;;;6.13;;
38117;SDS011;23928;47.562;7.508;2022-09-03T07:03:19;8.00;;;6.23;;
38117;SDS011;23928;47.562;7.508;2022-09-03T07:05:45;9.77;;;5.60;;
38117;SDS011;23928;47.562;7.508;2022-09-03T07:08:12;5.67;;;5.07;;
38117;SDS011;23928;47.562;7.508;2022-09-03T07:10:37;7.80;;;5.83;;
38117;SDS011;23928;47.562;7.508;2022-09-03T07:13:03;7.63;;;5.23;;
38117;SDS011;23928;47.562;7.508;2022-09-03T07:15:32;5.80;;;4.93;;
38117;SDS011;23928;47.562;7.508;2022-09-03T07:17:58;5.97;;;5.30;;
38117;SDS011;23928;47.562;7.508;2022-09-03T07:20:24;5.77;;;5.27;;
38117;SDS011;23928;47.562;7.508;2022-09-03T07:22:53;5.30;;;4.80;;
38117;SDS011;23928;47.562;7.508;2022-09-03T07:25:20;5.90;;;4.67;;
38117;SDS011;23928;47.562;7.508;2022-09-03T07:27:46;4.87;;;3.97;;
38117;SDS011;23928;47.562;7.508;2022-09-03T07:30:15;4.10;;;3.70;;
38117;SDS011;23928;47.562;7.508;2022-09-03T07:32:41;4.43;;;3.90;;
38117;SDS011;23928;47.562;7.508;2022-09-03T07:35:06;4.97;;;4.47;;
38117;SDS011;23928;47.562;7.508;2022-09-03T07:37:32;5.93;;;4.47;;
38117;SDS011;23928;47.562;7.508;2022-09-03T07:39:59;4.93;;;3.87;;
38117;SDS011;23928;47.562;7.508;2022-09-03T07:42:25;7.67;;;4.80;;
38117;SDS011;23928;47.562;7.508;2022-09-03T07:44:51;6.43;;;4.80;;
38117;SDS011;23928;47.562;7.508;2022-09-03T07:47:18;6.00;;;4.90;;
38117;SDS011;23928;47.562;7.508;2022-09-03T07:49:44;6.33;;;4.47;;
38117;SDS011;23928;47.562;7.508;2022-09-03T07:52:09;4.67;;;4.17;;
38117;SDS011;23928;47.562;7.508;2022-09-03T07:54:35;4.20;;;3.80;;
38117;SDS011;23928;47.562;7.508;2022-09-03T07:57:00;4.30;;;3.90;;
38117;SDS011;23928;47.562;7.508;2022-09-03T07:59:26;3.80;;;3.50;;
38117;SDS011;23928;47.562;7.508;2022-09-03T08:01:52;4.40;;;4.00;;
38117;SDS011;23928;47.562;7.508;2022-09-03T08:04:18;5.40;;;4.33;;
38117;SDS011;23928;47.562;7.508;2022-09-03T08:06:45;4.70;;;3.70;;
38117;SDS011;23928;47.562;7.508;2022-09-03T08:09:12;4.70;;;3.80;;
38117;SDS011;23928;47.562;7.508;2022-09-03T08:11:39;3.97;;;3.57;;
38117;SDS011;23928;47.562;7.508;2022-09-03T08:14:08;4.80;;;4.03;;
38117;SDS011;23928;47.562;7.508;2022-09-03T08:16:36;5.33;;;4.40;;
38117;SDS011;23928;47.562;7.508;2022-09-03T08:19:03;5.50;;;4.20;;
38117;SDS011;23928;47.562;7.508;2022-09-03T08:21:29;3.90;;;3.37;;
38117;SDS011;23928;47.562;7.508;2022-09-03T08:23:55;5.50;;;4.57;;
38117;SDS011;23928;47.562;7.508;2022-09-03T08:26:26;4.73;;;4.20;;
38117;SDS011;23928;47.562;7.508;2022-09-03T08:29:02;4.37;;;3.97;;
38117;SDS011;23928;47.562;7.508;2022-09-03T08:31:29;4.10;;;3.70;;
38117;SDS011;23928;47.562;7.508;2022-09-03T08:33:56;6.63;;;4.33;;
38117;SDS011;23928;47.562;7.508;2022-09-03T08:36:25;4.93;;;4.23;;
38117;SDS011;23928;47.562;7.508;2022-09-03T08:38:55;8.17;;;4.70;;
38117;SDS011;23928;47.562;7.508;2022-09-03T08:44:28;8.87;;;3.77;;
38117;SDS011;23928;47.562;7.508;2022-09-03T08:52:56;16.47;;;8.63;;
38117;SDS011;23928;47.562;7.508;2022-09-03T08:58:44;5.10;;;3.90;;
38117;SDS011;23928;47.562;7.508;2022-09-03T09:06:49;3.30;;;2.50;;
38117;SDS011;23928;47.562;7.508;2022-09-03T09:12:32;3.47;;;2.33;;
38117;SDS011;23928;47.562;7.508;2022-09-03T09:20:48;4.13;;;1.93;;
38117;SDS011;23928;47.562;7.508;2022-09-03T09:23:39;4.37;;;2.37;;
38117;SDS011;23928;47.562;7.508;2022-09-03T09:26:12;3.23;;;2.00;;
38117;SDS011;23928;47.562;7.508;2022-09-03T09:28:41;2.93;;;2.30;;
38117;SDS011;23928;47.562;7.508;2022-09-03T09:31:10;3.97;;;2.17;;
38117;SDS011;23928;47.562;7.508;2022-09-03T09:33:40;4.47;;;2.10;;
38117;SDS011;23928;47.562;7.508;2022-09-03T09:36:10;4.60;;;1.80;;
38117;SDS011;23928;47.562;7.508;2022-09-03T09:38:40;4.30;;;1.53;;
38117;SDS011;23928;47.562;7.508;2022-09-03T09:41:16;2.07;;;1.60;;
38117;SDS011;23928;47.562;7.508;2022-09-03T09:43:44;3.63;;;2.00;;
38117;SDS011;23928;47.562;7.508;2022-09-03T09:46:21;2.37;;;2.10;;
38117;SDS011;23928;47.562;7.508;2022-09-03T09:48:50;4.53;;;2.10;;
38117;SDS011;23928;47.562;7.508;2022-09-03T09:51:23;2.27;;;1.97;;
38117;SDS011;23928;47.562;7.508;2022-09-03T09:54:10;13.27;;;2.40;;
38117;SDS011;23928;47.562;7.508;2022-09-03T09:56:41;2.63;;;1.93;;
38117;SDS011;23928;47.562;7.508;2022-09-03T09:59:08;3.30;;;2.60;;
38117;SDS011;23928;47.562;7.508;2022-09-03T10:01:39;3.27;;;2.37;;
38117;SDS011;23928;47.562;7.508;2022-09-03T10:04:19;3.37;;;2.17;;
38117;SDS011;23928;47.562;7.508;2022-09-03T10:06:55;2.63;;;2.30;;
38117;SDS011;23928;47.562;7.508;2022-09-03T10:09:29;2.90;;;1.90;;
38117;SDS011;23928;47.562;7.508;2022-09-03T10:12:07;3.10;;;2.10;;
38117;SDS011;23928;47.562;7.508;2022-09-03T10:20:30;3.67;;;1.87;;
38117;SDS011;23928;47.562;7.508;2022-09-03T10:23:15;5.73;;;2.00;;
38117;SDS011;23928;47.562;7.508;2022-09-03T10:28:31;3.10;;;1.93;;
38117;SDS011;23928;47.562;7.508;2022-09-03T10:33:40;1.67;;;1.57;;
38117;SDS011;23928;47.562;7.508;2022-09-03T10:39:13;2.40;;;1.17;;
38117;SDS011;23928;47.562;7.508;2022-09-03T10:42:12;1.67;;;1.57;;
38117;SDS011;23928;47.562;7.508;2022-09-03T10:56:31;1.40;;;1.30;;
38117;SDS011;23928;47.562;7.508;2022-09-03T11:07:13;1.30;;;1.10;;
38117;SDS011;23928;47.562;7.508;2022-09-03T11:09:47;5.93;;;1.53;;
38117;SDS011;23928;47.562;7.508;2022-09-03T11:12:30;1.60;;;1.37;;
38117;SDS011;23928;47.562;7.508;2022-09-03T11:15:04;1.37;;;1.27;;
38117;SDS011;23928;47.562;7.508;2022-09-03T11:22:42;2.50;;;1.20;;
38117;SDS011;23928;47.562;7.508;2022-09-03T11:25:10;3.20;;;1.33;;
38117;SDS011;23928;47.562;7.508;2022-09-03T11:30:08;1.37;;;1.27;;
38117;SDS011;23928;47.562;7.508;2022-09-03T11:35:12;1.70;;;1.60;;
38117;SDS011;23928;47.562;7.508;2022-09-03T11:38:02;2.43;;;1.50;;
38117;SDS011;23928;47.562;7.508;2022-09-03T11:40:38;1.70;;;1.60;;
38117;SDS011;23928;47.562;7.508;2022-09-03T11:56:29;1.37;;;1.27;;
38117;SDS011;23928;47.562;7.508;2022-09-03T12:01:45;3.07;;;1.53;;
38117;SDS011;23928;47.562;7.508;2022-09-03T12:18:22;1.90;;;1.70;;
38117;SDS011;23928;47.562;7.508;2022-09-03T12:26:16;1.70;;;1.60;;
38117;SDS011;23928;47.562;7.508;2022-09-03T12:28:50;3.17;;;1.57;;
38117;SDS011;23928;47.562;7.508;2022-09-03T12:31:29;1.63;;;1.53;;
38117;SDS011;23928;47.562;7.508;2022-09-03T12:34:10;1.60;;;1.50;;
38117;SDS011;23928;47.562;7.508;2022-09-03T12:36:45;2.87;;;1.40;;
38117;SDS011;23928;47.562;7.508;2022-09-03T12:44:30;1.50;;;1.40;;
38117;SDS011;23928;47.562;7.508;2022-09-03T12:49:39;1.50;;;1.40;;
38117;SDS011;23928;47.562;7.508;2022-09-03T12:52:08;3.20;;;1.50;;
38117;SDS011;23928;47.562;7.508;2022-09-03T12:55:02;1.40;;;1.30;;
38117;SDS011;23928;47.562;7.508;2022-09-03T12:57:42;1.90;;;1.80;;
38117;SDS011;23928;47.562;7.508;2022-09-03T13:00:13;1.80;;;1.70;;
38117;SDS011;23928;47.562;7.508;2022-09-03T13:02:45;1.63;;;1.53;;
38117;SDS011;23928;47.562;7.508;2022-09-03T13:05:20;1.77;;;1.60;;
38117;SDS011;23928;47.562;7.508;2022-09-03T13:07:57;1.53;;;1.40;;
38117;SDS011;23928;47.562;7.508;2022-09-03T13:10:27;1.50;;;1.40;;
38117;SDS011;23928;47.562;7.508;2022-09-03T13:12:58;1.73;;;1.63;;
38117;SDS011;23928;47.562;7.508;2022-09-03T13:15:27;1.93;;;1.60;;
38117;SDS011;23928;47.562;7.508;2022-09-03T13:18:00;1.73;;;1.30;;
38117;SDS011;23928;47.562;7.508;2022-09-03T13:29:38;1.70;;;1.60;;
38117;SDS011;23928;47.562;7.508;2022-09-03T13:32:18;2.97;;;1.73;;
38117;SDS011;23928;47.562;7.508;2022-09-03T13:34:54;1.80;;;1.70;;
38117;SDS011;23928;47.562;7.508;2022-09-03T13:37:24;1.50;;;1.40;;
38117;SDS011;23928;47.562;7.508;2022-09-03T13:39:57;2.10;;;1.57;;
38117;SDS011;23928;47.562;7.508;2022-09-03T13:48:08;1.70;;;1.53;;
38117;SDS011;23928;47.562;7.508;2022-09-03T13:51:12;1.30;;;1.20;;
38117;SDS011;23928;47.562;7.508;2022-09-03T13:53:47;1.60;;;1.50;;
38117;SDS011;23928;47.562;7.508;2022-09-03T14:05:12;1.80;;;1.70;;
38117;SDS011;23928;47.562;7.508;2022-09-03T14:10:50;1.40;;;1.30;;
38117;SDS011;23928;47.562;7.508;2022-09-03T14:16:40;1.63;;;1.53;;
38117;SDS011;23928;47.562;7.508;2022-09-03T14:19:15;1.97;;;1.50;;
38117;SDS011;23928;47.562;7.508;2022-09-03T14:21:49;1.53;;;1.43;;
38117;SDS011;23928;47.562;7.508;2022-09-03T14:24:46;2.47;;;1.77;;
38117;SDS011;23928;47.562;7.508;2022-09-03T14:27:21;1.80;;;1.70;;
38117;SDS011;23928;47.562;7.508;2022-09-03T14:29:52;1.70;;;1.60;;
38117;SDS011;23928;47.562;7.508;2022-09-03T14:32:26;1.93;;;1.73;;
38117;SDS011;23928;47.562;7.508;2022-09-03T14:35:12;2.63;;;1.50;;
38117;SDS011;23928;47.562;7.508;2022-09-03T14:38:01;1.70;;;1.60;;
38117;SDS011;23928;47.562;7.508;2022-09-03T14:41:21;2.67;;;1.90;;
38117;SDS011;23928;47.562;7.508;2022-09-03T14:46:34;2.40;;;2.00;;
38117;SDS011;23928;47.562;7.508;2022-09-03T14:51:59;1.77;;;1.60;;
38117;SDS011;23928;47.562;7.508;2022-09-03T15:00:08;2.27;;;1.90;;
38117;SDS011;23928;47.562;7.508;2022-09-03T15:10:52;2.83;;;2.40;;
38117;SDS011;23928;47.562;7.508;2022-09-03T15:13:29;5.50;;;2.83;;
38117;SDS011;23928;47.562;7.508;2022-09-03T15:18:28;6.60;;;2.17;;
38117;SDS011;23928;47.562;7.508;2022-09-03T15:31:54;3.43;;;2.40;;
38117;SDS011;23928;47.562;7.508;2022-09-03T15:37:51;3.10;;;2.40;;
38117;SDS011;23928;47.562;7.508;2022-09-03T15:40:02;2.87;;;2.63;;
38117;SDS011;23928;47.562;7.508;2022-09-03T15:42:41;4.07;;;2.40;;
38117;SDS011;23928;47.562;7.508;2022-09-03T15:45:17;2.50;;;2.07;;
38117;SDS011;23928;47.562;7.508;2022-09-03T15:47:52;3.53;;;1.90;;
38117;SDS011;23928;47.562;7.508;2022-09-03T15:50:28;2.33;;;2.13;;
38117;SDS011;23928;47.562;7.508;2022-09-03T15:55:49;3.07;;;1.97;;
38117;SDS011;23928;47.562;7.508;2022-09-03T16:06:48;2.83;;;1.83;;
38117;SDS011;23928;47.562;7.508;2022-09-03T16:12:31;1.63;;;1.53;;
38117;SDS011;23928;47.562;7.508;2022-09-03T16:15:03;1.47;;;1.30;;
38117;SDS011;23928;47.562;7.508;2022-09-03T16:17:59;1.40;;;1.30;;
38117;SDS011;23928;47.562;7.508;2022-09-03T16:23:22;1.63;;;1.50;;
38117;SDS011;23928;47.562;7.508;2022-09-03T16:26:02;2.30;;;1.43;;
38117;SDS011;23928;47.562;7.508;2022-09-03T16:29:24;2.00;;;1.40;;
38117;SDS011;23928;47.562;7.508;2022-09-03T16:39:54;3.37;;;1.60;;
38117;SDS011;23928;47.562;7.508;2022-09-03T16:42:46;1.60;;;1.50;;
38117;SDS011;23928;47.562;7.508;2022-09-03T16:48:19;1.70;;;1.30;;
38117;SDS011;23928;47.562;7.508;2022-09-03T16:51:04;2.27;;;1.60;;
38117;SDS011;23928;47.562;7.508;2022-09-03T17:07:24;1.97;;;1.50;;
38117;SDS011;23928;47.562;7.508;2022-09-03T17:15:40;2.60;;;2.20;;
38117;SDS011;23928;47.562;7.508;2022-09-03T17:18:18;2.73;;;2.23;;
38117;SDS011;23928;47.562;7.508;2022-09-03T17:34:56;2.03;;;1.63;;
38117;SDS011;23928;47.562;7.508;2022-09-03T17:42:41;1.97;;;1.40;;
38117;SDS011;23928;47.562;7.508;2022-09-03T17:45:35;1.60;;;1.43;;
38117;SDS011;23928;47.562;7.508;2022-09-03T17:51:41;3.37;;;1.40;;
38117;SDS011;23928;47.562;7.508;2022-09-03T17:54:25;2.20;;;1.50;;
38117;SDS011;23928;47.562;7.508;2022-09-03T17:57:23;1.87;;;1.67;;
38117;SDS011;23928;47.562;7.508;2022-09-03T18:00:00;2.30;;;1.40;;
38117;SDS011;23928;47.562;7.508;2022-09-03T18:02:36;2.13;;;1.83;;
38117;SDS011;23928;47.562;7.508;2022-09-03T18:05:27;4.50;;;1.70;;
38117;SDS011;23928;47.562;7.508;2022-09-03T18:11:13;1.63;;;1.53;;
38117;SDS011;23928;47.562;7.508;2022-09-03T18:19:36;3.00;;;1.60;;
38117;SDS011;23928;47.562;7.508;2022-09-03T18:22:54;1.90;;;1.57;;
38117;SDS011;23928;47.562;7.508;2022-09-03T18:25:39;2.87;;;1.60;;
38117;SDS011;23928;47.562;7.508;2022-09-03T18:28:31;3.17;;;1.80;;
38117;SDS011;23928;47.562;7.508;2022-09-03T18:31:21;4.70;;;2.00;;
38117;SDS011;23928;47.562;7.508;2022-09-03T18:34:06;3.00;;;1.80;;
38117;SDS011;23928;47.562;7.508;2022-09-03T18:36:50;1.73;;;1.63;;
38117;SDS011;23928;47.562;7.508;2022-09-03T18:39:35;2.00;;;1.70;;
38117;SDS011;23928;47.562;7.508;2022-09-03T18:48:57;3.70;;;2.17;;
38117;SDS011;23928;47.562;7.508;2022-09-03T18:55:30;2.47;;;1.60;;
38117;SDS011;23928;47.562;7.508;2022-09-03T18:58:44;4.13;;;1.80;;
38117;SDS011;23928;47.562;7.508;2022-09-03T19:01:41;1.90;;;1.80;;
38117;SDS011;23928;47.562;7.508;2022-09-03T19:04:30;1.97;;;1.73;;
38117;SDS011;23928;47.562;7.508;2022-09-03T19:07:46;3.57;;;1.70;;
38117;SDS011;23928;47.562;7.508;2022-09-03T19:13:34;2.47;;;2.00;;
38117;SDS011;23928;47.562;7.508;2022-09-03T19:22:11;1.93;;;1.60;;
38117;SDS011;23928;47.562;7.508;2022-09-03T19:25:02;3.73;;;1.80;;
38117;SDS011;23928;47.562;7.508;2022-09-03T19:34:26;2.67;;;1.80;;
38117;SDS011;23928;47.562;7.508;2022-09-03T19:37:36;2.07;;;1.83;;
38117;SDS011;23928;47.562;7.508;2022-09-03T19:40:37;1.80;;;1.70;;
38117;SDS011;23928;47.562;7.508;2022-09-03T19:47:01;1.80;;;1.60;;
38117;SDS011;23928;47.562;7.508;2022-09-03T19:53:02;3.47;;;2.10;;
38117;SDS011;23928;47.562;7.508;2022-09-03T19:55:53;2.40;;;2.20;;
38117;SDS011;23928;47.562;7.508;2022-09-03T19:58:41;2.80;;;1.80;;
38117;SDS011;23928;47.562;7.508;2022-09-03T20:01:32;4.23;;;2.00;;
38117;SDS011;23928;47.562;7.508;2022-09-03T20:04:18;3.13;;;2.80;;
38117;SDS011;23928;47.562;7.508;2022-09-03T20:07:08;3.20;;;2.90;;
38117;SDS011;23928;47.562;7.508;2022-09-03T20:09:53;4.83;;;2.93;;
38117;SDS011;23928;47.562;7.508;2022-09-03T20:12:43;4.63;;;2.70;;
38117;SDS011;23928;47.562;7.508;2022-09-03T20:15:13;3.43;;;2.80;;
38117;SDS011;23928;47.562;7.508;2022-09-03T20:20:49;3.87;;;2.00;;
38117;SDS011;23928;47.562;7.508;2022-09-03T20:24:09;2.77;;;2.10;;
38117;SDS011;23928;47.562;7.508;2022-09-03T20:29:01;3.47;;;1.77;;
38117;SDS011;23928;47.562;7.508;2022-09-03T20:32:16;3.87;;;2.07;;
38117;SDS011;23928;47.562;7.508;2022-09-03T20:37:33;2.10;;;1.60;;
38117;SDS011;23928;47.562;7.508;2022-09-03T20:42:57;1.83;;;1.70;;
38117;SDS011;23928;47.562;7.508;2022-09-03T20:48:50;5.77;;;2.30;;
38117;SDS011;23928;47.562;7.508;2022-09-03T20:51:48;2.10;;;1.93;;
38117;SDS011;23928;47.562;7.508;2022-09-03T20:54:20;2.53;;;2.03;;
38117;SDS011;23928;47.562;7.508;2022-09-03T20:59:51;3.70;;;2.47;;
38117;SDS011;23928;47.562;7.508;2022-09-03T21:11:22;4.10;;;2.00;;
38117;SDS011;23928;47.562;7.508;2022-09-03T21:22:11;6.80;;;2.63;;
38117;SDS011;23928;47.562;7.508;2022-09-03T21:24:56;3.90;;;2.23;;
38117;SDS011;23928;47.562;7.508;2022-09-03T21:27:32;4.43;;;2.30;;
38117;SDS011;23928;47.562;7.508;2022-09-03T21:30:05;3.10;;;2.20;;
38117;SDS011;23928;47.562;7.508;2022-09-03T21:40:31;2.63;;;2.10;;
38117;SDS011;23928;47.562;7.508;2022-09-03T21:46:23;4.07;;;2.13;;
38117;SDS011;23928;47.562;7.508;2022-09-03T21:48:34;2.53;;;2.20;;
38117;SDS011;23928;47.562;7.508;2022-09-03T21:51:06;3.53;;;2.07;;
38117;SDS011;23928;47.562;7.508;2022-09-03T21:53:49;8.63;;;3.10;;
38117;SDS011;23928;47.562;7.508;2022-09-03T21:59:37;4.07;;;2.27;;
38117;SDS011;23928;47.562;7.508;2022-09-03T22:02:30;3.70;;;2.20;;
38117;SDS011;23928;47.562;7.508;2022-09-03T22:04:57;3.67;;;2.10;;
38117;SDS011;23928;47.562;7.508;2022-09-03T22:15:26;2.00;;;1.80;;
38117;SDS011;23928;47.562;7.508;2022-09-03T22:17:58;5.43;;;1.87;;
38117;SDS011;23928;47.562;7.508;2022-09-03T22:23:27;9.07;;;2.90;;